sensor_id;sensor_type;location;lat;lon;timestamp;P1;durP1;ratioP1;P2;durP2;ratioP2
64966;SDS011;51710;38.732;-121.358;2023-02-01T00:00:52;5.00;;;2.67;;
64966;SDS011;51710;38.732;-121.358;2023-02-01T00:03:20;3.60;;;2.20;;
64966;SDS011;51710;38.732;-121.358;2023-02-01T00:05:57;5.75;;;2.47;;
64966;SDS011;51710;38.732;-121.358;2023-02-01T00:08:24;6.70;;;2.38;;
64966;SDS011;51710;38.732;-121.358;2023-02-01T00:11:00;6.82;;;2.00;;
64966;SDS011;51710;38.732;-121.358;2023-02-01T00:13:30;5.93;;;2.33;;
64966;SDS011;51710;38.732;-121.358;2023-02-01T00:16:05;3.88;;;2.22;;
64966;SDS011;51710;38.732;-121.358;2023-02-01T00:18:34;5.05;;;2.45;;
64966;SDS011;51710;38.732;-121.358;2023-02-01T00:21:00;6.30;;;2.60;;
64966;SDS011;51710;38.732;-121.358;2023-02-01T00:23:27;4.72;;;2.63;;
64966;SDS011;51710;38.732;-121.358;2023-02-01T00:25:53;4.35;;;2.28;;
64966;SDS011;51710;38.732;-121.358;2023-02-01T00:28:20;4.47;;;2.70;;
64966;SDS011;51710;38.732;-121.358;2023-02-01T00:30:46;5.10;;;2.90;;
64966;SDS011;51710;38.732;-121.358;2023-02-01T00:33:12;4.10;;;2.00;;
64966;SDS011;51710;38.732;-121.358;2023-02-01T00:35:39;5.90;;;3.83;;
64966;SDS011;51710;38.732;-121.358;2023-02-01T00:38:05;7.15;;;4.47;;
64966;SDS011;51710;38.732;-121.358;2023-02-01T00:40:31;6.53;;;4.07;;
64966;SDS011;51710;38.732;-121.358;2023-02-01T00:42:58;7.95;;;2.40;;
64966;SDS011;51710;38.732;-121.358;2023-02-01T00:45:24;5.78;;;3.70;;
64966;SDS011;51710;38.732;-121.358;2023-02-01T00:47:50;7.78;;;4.45;;
64966;SDS011;51710;38.732;-121.358;2023-02-01T00:50:17;5.47;;;3.08;;
64966;SDS011;51710;38.732;-121.358;2023-02-01T00:52:43;4.45;;;2.75;;
64966;SDS011;51710;38.732;-121.358;2023-02-01T00:55:09;5.47;;;2.00;;
64966;SDS011;51710;38.732;-121.358;2023-02-01T00:57:36;3.63;;;2.10;;
64966;SDS011;51710;38.732;-121.358;2023-02-01T01:00:02;7.18;;;2.65;;
64966;SDS011;51710;38.732;-121.358;2023-02-01T01:02:29;5.13;;;1.90;;
64966;SDS011;51710;38.732;-121.358;2023-02-01T01:04:55;6.13;;;2.13;;
64966;SDS011;51710;38.732;-121.358;2023-02-01T01:07:22;3.53;;;1.60;;
64966;SDS011;51710;38.732;-121.358;2023-02-01T01:09:48;3.88;;;1.90;;
64966;SDS011;51710;38.732;-121.358;2023-02-01T01:12:14;3.08;;;1.80;;
64966;SDS011;51710;38.732;-121.358;2023-02-01T01:14:41;4.53;;;1.90;;
64966;SDS011;51710;38.732;-121.358;2023-02-01T01:17:07;3.30;;;1.77;;
64966;SDS011;51710;38.732;-121.358;2023-02-01T01:19:33;6.40;;;2.17;;
64966;SDS011;51710;38.732;-121.358;2023-02-01T01:22:00;4.70;;;2.10;;
64966;SDS011;51710;38.732;-121.358;2023-02-01T01:24:26;4.85;;;1.92;;
64966;SDS011;51710;38.732;-121.358;2023-02-01T01:26:52;5.45;;;2.28;;
64966;SDS011;51710;38.732;-121.358;2023-02-01T01:29:19;4.93;;;2.75;;
64966;SDS011;51710;38.732;-121.358;2023-02-01T01:31:45;5.53;;;2.13;;
64966;SDS011;51710;38.732;-121.358;2023-02-01T01:34:11;3.45;;;2.00;;
64966;SDS011;51710;38.732;-121.358;2023-02-01T01:36:40;4.82;;;2.40;;
64966;SDS011;51710;38.732;-121.358;2023-02-01T01:39:06;4.80;;;2.17;;
64966;SDS011;51710;38.732;-121.358;2023-02-01T01:41:33;3.60;;;1.95;;
64966;SDS011;51710;38.732;-121.358;2023-02-01T01:44:03;4.20;;;2.47;;
64966;SDS011;51710;38.732;-121.358;2023-02-01T01:46:35;4.35;;;2.33;;
64966;SDS011;51710;38.732;-121.358;2023-02-01T01:49:10;4.53;;;2.15;;
64966;SDS011;51710;38.732;-121.358;2023-02-01T01:51:42;5.53;;;2.70;;
64966;SDS011;51710;38.732;-121.358;2023-02-01T01:54:24;6.97;;;2.53;;
64966;SDS011;51710;38.732;-121.358;2023-02-01T01:57:01;5.28;;;2.28;;
64966;SDS011;51710;38.732;-121.358;2023-02-01T01:59:35;5.82;;;2.30;;
64966;SDS011;51710;38.732;-121.358;2023-02-01T02:02:04;4.13;;;2.40;;
64966;SDS011;51710;38.732;-121.358;2023-02-01T02:04:31;6.38;;;2.45;;
64966;SDS011;51710;38.732;-121.358;2023-02-01T02:07:20;7.38;;;2.88;;
64966;SDS011;51710;38.732;-121.358;2023-02-01T02:09:48;5.97;;;2.78;;
64966;SDS011;51710;38.732;-121.358;2023-02-01T02:12:15;8.43;;;3.33;;
64966;SDS011;51710;38.732;-121.358;2023-02-01T02:14:41;7.28;;;3.70;;
64966;SDS011;51710;38.732;-121.358;2023-02-01T02:39:36;10.18;;;5.32;;
64966;SDS011;51710;38.732;-121.358;2023-02-01T02:42:25;10.25;;;4.63;;
64966;SDS011;51710;38.732;-121.358;2023-02-01T02:48:34;8.70;;;4.60;;
64966;SDS011;51710;38.732;-121.358;2023-02-01T02:51:12;10.40;;;5.35;;
64966;SDS011;51710;38.732;-121.358;2023-02-01T02:54:10;10.35;;;5.05;;
64966;SDS011;51710;38.732;-121.358;2023-02-01T02:57:00;6.68;;;3.90;;
64966;SDS011;51710;38.732;-121.358;2023-02-01T02:59:48;10.23;;;4.55;;
64966;SDS011;51710;38.732;-121.358;2023-02-01T03:02:34;6.68;;;4.00;;
64966;SDS011;51710;38.732;-121.358;2023-02-01T03:05:24;6.30;;;3.72;;
64966;SDS011;51710;38.732;-121.358;2023-02-01T03:16:24;11.63;;;4.40;;
64966;SDS011;51710;38.732;-121.358;2023-02-01T03:19:00;7.43;;;4.47;;
64966;SDS011;51710;38.732;-121.358;2023-02-01T03:21:48;9.20;;;4.55;;
64966;SDS011;51710;38.732;-121.358;2023-02-01T03:24:38;8.93;;;4.82;;
64966;SDS011;51710;38.732;-121.358;2023-02-01T03:32:48;9.13;;;4.90;;
64966;SDS011;51710;38.732;-121.358;2023-02-01T03:38:27;7.28;;;3.78;;
64966;SDS011;51710;38.732;-121.358;2023-02-01T03:41:43;6.57;;;3.30;;
64966;SDS011;51710;38.732;-121.358;2023-02-01T03:43:56;9.48;;;3.38;;
64966;SDS011;51710;38.732;-121.358;2023-02-01T03:52:10;6.45;;;3.47;;
64966;SDS011;51710;38.732;-121.358;2023-02-01T03:54:42;8.23;;;3.78;;
64966;SDS011;51710;38.732;-121.358;2023-02-01T03:57:11;11.73;;;3.85;;
64966;SDS011;51710;38.732;-121.358;2023-02-01T03:59:42;7.32;;;3.17;;
64966;SDS011;51710;38.732;-121.358;2023-02-01T04:02:14;9.73;;;3.40;;
64966;SDS011;51710;38.732;-121.358;2023-02-01T04:04:40;6.55;;;3.55;;
64966;SDS011;51710;38.732;-121.358;2023-02-01T04:07:07;7.05;;;3.28;;
64966;SDS011;51710;38.732;-121.358;2023-02-01T04:09:33;7.70;;;3.38;;
64966;SDS011;51710;38.732;-121.358;2023-02-01T04:11:59;6.68;;;4.03;;
64966;SDS011;51710;38.732;-121.358;2023-02-01T04:14:25;6.93;;;3.60;;
64966;SDS011;51710;38.732;-121.358;2023-02-01T04:16:52;7.47;;;3.83;;
64966;SDS011;51710;38.732;-121.358;2023-02-01T04:19:19;7.38;;;3.85;;
64966;SDS011;51710;38.732;-121.358;2023-02-01T04:21:45;8.32;;;3.72;;
64966;SDS011;51710;38.732;-121.358;2023-02-01T04:24:12;10.68;;;4.35;;
64966;SDS011;51710;38.732;-121.358;2023-02-01T04:26:38;6.82;;;3.72;;
64966;SDS011;51710;38.732;-121.358;2023-02-01T04:29:04;7.55;;;4.00;;
64966;SDS011;51710;38.732;-121.358;2023-02-01T04:31:34;11.43;;;4.13;;
64966;SDS011;51710;38.732;-121.358;2023-02-01T04:34:01;12.35;;;3.50;;
64966;SDS011;51710;38.732;-121.358;2023-02-01T04:36:28;5.75;;;2.63;;
64966;SDS011;51710;38.732;-121.358;2023-02-01T04:38:54;6.60;;;3.15;;
64966;SDS011;51710;38.732;-121.358;2023-02-01T04:41:20;6.50;;;3.65;;
64966;SDS011;51710;38.732;-121.358;2023-02-01T04:43:48;7.15;;;4.15;;
64966;SDS011;51710;38.732;-121.358;2023-02-01T04:46:16;7.22;;;4.13;;
64966;SDS011;51710;38.732;-121.358;2023-02-01T04:48:42;10.25;;;4.43;;
64966;SDS011;51710;38.732;-121.358;2023-02-01T04:51:09;9.45;;;4.60;;
64966;SDS011;51710;38.732;-121.358;2023-02-01T04:53:36;9.80;;;4.90;;
64966;SDS011;51710;38.732;-121.358;2023-02-01T04:56:02;8.38;;;4.40;;
64966;SDS011;51710;38.732;-121.358;2023-02-01T04:58:29;7.03;;;4.22;;
64966;SDS011;51710;38.732;-121.358;2023-02-01T05:00:55;8.57;;;4.55;;
64966;SDS011;51710;38.732;-121.358;2023-02-01T05:03:22;8.30;;;4.68;;
64966;SDS011;51710;38.732;-121.358;2023-02-01T05:05:48;7.57;;;4.22;;
64966;SDS011;51710;38.732;-121.358;2023-02-01T05:08:14;8.73;;;4.57;;
64966;SDS011;51710;38.732;-121.358;2023-02-01T05:10:41;10.10;;;4.60;;
64966;SDS011;51710;38.732;-121.358;2023-02-01T05:13:08;8.57;;;4.22;;
64966;SDS011;51710;38.732;-121.358;2023-02-01T05:15:54;10.90;;;3.97;;
64966;SDS011;51710;38.732;-121.358;2023-02-01T05:18:20;6.57;;;3.85;;
64966;SDS011;51710;38.732;-121.358;2023-02-01T05:20:47;6.05;;;3.45;;
64966;SDS011;51710;38.732;-121.358;2023-02-01T05:23:13;6.80;;;3.58;;
64966;SDS011;51710;38.732;-121.358;2023-02-01T05:25:39;5.82;;;3.45;;
64966;SDS011;51710;38.732;-121.358;2023-02-01T05:28:06;6.05;;;3.13;;
64966;SDS011;51710;38.732;-121.358;2023-02-01T05:30:32;6.55;;;3.95;;
64966;SDS011;51710;38.732;-121.358;2023-02-01T05:33:00;6.45;;;3.97;;
64966;SDS011;51710;38.732;-121.358;2023-02-01T05:35:27;7.18;;;3.40;;
64966;SDS011;51710;38.732;-121.358;2023-02-01T05:37:54;7.13;;;3.83;;
64966;SDS011;51710;38.732;-121.358;2023-02-01T05:40:20;8.52;;;3.47;;
64966;SDS011;51710;38.732;-121.358;2023-02-01T05:42:46;7.60;;;3.95;;
64966;SDS011;51710;38.732;-121.358;2023-02-01T05:45:13;7.15;;;3.67;;
64966;SDS011;51710;38.732;-121.358;2023-02-01T05:47:40;6.78;;;3.85;;
64966;SDS011;51710;38.732;-121.358;2023-02-01T05:50:06;7.93;;;4.13;;
64966;SDS011;51710;38.732;-121.358;2023-02-01T05:52:33;8.38;;;3.85;;
64966;SDS011;51710;38.732;-121.358;2023-02-01T05:54:59;6.30;;;3.42;;
64966;SDS011;51710;38.732;-121.358;2023-02-01T05:57:26;8.35;;;3.80;;
64966;SDS011;51710;38.732;-121.358;2023-02-01T05:59:52;6.85;;;4.03;;
64966;SDS011;51710;38.732;-121.358;2023-02-01T06:02:19;6.72;;;3.50;;
64966;SDS011;51710;38.732;-121.358;2023-02-01T06:04:45;7.28;;;3.63;;
64966;SDS011;51710;38.732;-121.358;2023-02-01T06:07:12;8.52;;;4.20;;
64966;SDS011;51710;38.732;-121.358;2023-02-01T06:09:38;8.25;;;4.10;;
64966;SDS011;51710;38.732;-121.358;2023-02-01T06:12:04;7.78;;;4.05;;
64966;SDS011;51710;38.732;-121.358;2023-02-01T06:14:31;6.93;;;3.65;;
64966;SDS011;51710;38.732;-121.358;2023-02-01T06:16:58;10.98;;;4.00;;
64966;SDS011;51710;38.732;-121.358;2023-02-01T06:19:24;7.70;;;3.72;;
64966;SDS011;51710;38.732;-121.358;2023-02-01T06:21:50;8.13;;;4.18;;
64966;SDS011;51710;38.732;-121.358;2023-02-01T06:24:17;6.97;;;3.67;;
64966;SDS011;51710;38.732;-121.358;2023-02-01T06:26:43;7.55;;;3.75;;
64966;SDS011;51710;38.732;-121.358;2023-02-01T06:29:09;6.28;;;3.83;;
64966;SDS011;51710;38.732;-121.358;2023-02-01T06:31:36;7.75;;;4.20;;
64966;SDS011;51710;38.732;-121.358;2023-02-01T06:34:02;11.32;;;4.60;;
64966;SDS011;51710;38.732;-121.358;2023-02-01T06:36:29;21.80;;;10.32;;
64966;SDS011;51710;38.732;-121.358;2023-02-01T06:38:55;23.02;;;9.75;;
64966;SDS011;51710;38.732;-121.358;2023-02-01T06:41:22;25.92;;;13.15;;
64966;SDS011;51710;38.732;-121.358;2023-02-01T06:43:49;28.80;;;11.20;;
64966;SDS011;51710;38.732;-121.358;2023-02-01T06:46:15;24.10;;;7.93;;
64966;SDS011;51710;38.732;-121.358;2023-02-01T06:48:45;16.50;;;7.32;;
64966;SDS011;51710;38.732;-121.358;2023-02-01T06:51:18;12.95;;;7.05;;
64966;SDS011;51710;38.732;-121.358;2023-02-01T06:53:49;16.50;;;8.02;;
64966;SDS011;51710;38.732;-121.358;2023-02-01T06:56:16;10.40;;;5.75;;
64966;SDS011;51710;38.732;-121.358;2023-02-01T06:58:44;10.10;;;5.15;;
64966;SDS011;51710;38.732;-121.358;2023-02-01T07:01:10;12.18;;;6.18;;
64966;SDS011;51710;38.732;-121.358;2023-02-01T07:03:37;8.55;;;4.63;;
64966;SDS011;51710;38.732;-121.358;2023-02-01T07:06:05;8.00;;;5.15;;
64966;SDS011;51710;38.732;-121.358;2023-02-01T07:08:32;9.77;;;5.00;;
64966;SDS011;51710;38.732;-121.358;2023-02-01T07:11:01;8.73;;;4.88;;
64966;SDS011;51710;38.732;-121.358;2023-02-01T07:13:29;8.60;;;4.47;;
64966;SDS011;51710;38.732;-121.358;2023-02-01T07:16:01;7.85;;;4.38;;
64966;SDS011;51710;38.732;-121.358;2023-02-01T07:18:29;10.27;;;4.70;;
64966;SDS011;51710;38.732;-121.358;2023-02-01T07:20:57;9.55;;;5.10;;
64966;SDS011;51710;38.732;-121.358;2023-02-01T07:23:23;8.80;;;5.03;;
64966;SDS011;51710;38.732;-121.358;2023-02-01T07:25:55;8.35;;;5.22;;
64966;SDS011;51710;38.732;-121.358;2023-02-01T07:28:23;11.95;;;5.47;;
64966;SDS011;51710;38.732;-121.358;2023-02-01T07:30:50;10.02;;;4.95;;
64966;SDS011;51710;38.732;-121.358;2023-02-01T07:33:20;10.63;;;4.60;;
64966;SDS011;51710;38.732;-121.358;2023-02-01T07:35:48;9.75;;;4.90;;
64966;SDS011;51710;38.732;-121.358;2023-02-01T07:38:16;10.57;;;4.97;;
64966;SDS011;51710;38.732;-121.358;2023-02-01T07:40:42;9.98;;;4.38;;
64966;SDS011;51710;38.732;-121.358;2023-02-01T07:43:09;8.70;;;4.90;;
64966;SDS011;51710;38.732;-121.358;2023-02-01T07:45:36;10.15;;;4.68;;
64966;SDS011;51710;38.732;-121.358;2023-02-01T07:48:03;9.85;;;4.88;;
64966;SDS011;51710;38.732;-121.358;2023-02-01T07:50:30;8.63;;;4.82;;
64966;SDS011;51710;38.732;-121.358;2023-02-01T07:53:00;10.65;;;5.22;;
64966;SDS011;51710;38.732;-121.358;2023-02-01T07:55:27;11.23;;;4.68;;
64966;SDS011;51710;38.732;-121.358;2023-02-01T07:57:56;12.07;;;5.28;;
64966;SDS011;51710;38.732;-121.358;2023-02-01T08:00:24;8.27;;;4.20;;
64966;SDS011;51710;38.732;-121.358;2023-02-01T08:03:09;9.30;;;4.00;;
64966;SDS011;51710;38.732;-121.358;2023-02-01T08:05:36;9.80;;;4.78;;
64966;SDS011;51710;38.732;-121.358;2023-02-01T08:08:02;10.00;;;4.72;;
64966;SDS011;51710;38.732;-121.358;2023-02-01T08:10:29;7.93;;;4.57;;
64966;SDS011;51710;38.732;-121.358;2023-02-01T08:12:59;8.95;;;4.90;;
64966;SDS011;51710;38.732;-121.358;2023-02-01T08:15:26;10.07;;;5.05;;
64966;SDS011;51710;38.732;-121.358;2023-02-01T08:17:53;9.30;;;4.70;;
64966;SDS011;51710;38.732;-121.358;2023-02-01T08:20:23;12.52;;;4.97;;
64966;SDS011;51710;38.732;-121.358;2023-02-01T08:22:51;12.85;;;5.53;;
64966;SDS011;51710;38.732;-121.358;2023-02-01T08:25:17;8.32;;;4.60;;
64966;SDS011;51710;38.732;-121.358;2023-02-01T08:27:44;7.78;;;4.32;;
64966;SDS011;51710;38.732;-121.358;2023-02-01T08:30:11;12.43;;;4.88;;
64966;SDS011;51710;38.732;-121.358;2023-02-01T08:32:38;8.60;;;4.03;;
64966;SDS011;51710;38.732;-121.358;2023-02-01T08:35:05;8.27;;;4.18;;
64966;SDS011;51710;38.732;-121.358;2023-02-01T08:37:32;8.80;;;3.83;;
64966;SDS011;51710;38.732;-121.358;2023-02-01T08:39:58;8.23;;;3.92;;
64966;SDS011;51710;38.732;-121.358;2023-02-01T08:42:25;8.43;;;3.92;;
64966;SDS011;51710;38.732;-121.358;2023-02-01T08:45:10;8.43;;;4.18;;
64966;SDS011;51710;38.732;-121.358;2023-02-01T08:47:36;10.80;;;4.30;;
64966;SDS011;51710;38.732;-121.358;2023-02-01T08:50:02;11.52;;;4.60;;
64966;SDS011;51710;38.732;-121.358;2023-02-01T08:52:29;7.90;;;4.03;;
64966;SDS011;51710;38.732;-121.358;2023-02-01T08:54:56;10.23;;;4.30;;
64966;SDS011;51710;38.732;-121.358;2023-02-01T08:57:22;7.20;;;3.67;;
64966;SDS011;51710;38.732;-121.358;2023-02-01T08:59:49;5.85;;;3.60;;
64966;SDS011;51710;38.732;-121.358;2023-02-01T09:02:16;8.80;;;4.63;;
64966;SDS011;51710;38.732;-121.358;2023-02-01T09:04:43;9.60;;;4.03;;
64966;SDS011;51710;38.732;-121.358;2023-02-01T09:07:09;9.75;;;4.20;;
64966;SDS011;51710;38.732;-121.358;2023-02-01T09:09:38;8.65;;;4.47;;
64966;SDS011;51710;38.732;-121.358;2023-02-01T09:12:04;10.48;;;4.00;;
64966;SDS011;51710;38.732;-121.358;2023-02-01T09:14:31;8.43;;;4.20;;
64966;SDS011;51710;38.732;-121.358;2023-02-01T09:16:57;10.10;;;4.43;;
64966;SDS011;51710;38.732;-121.358;2023-02-01T09:19:24;6.00;;;3.55;;
64966;SDS011;51710;38.732;-121.358;2023-02-01T09:21:50;7.47;;;3.80;;
64966;SDS011;51710;38.732;-121.358;2023-02-01T09:24:16;7.80;;;3.83;;
64966;SDS011;51710;38.732;-121.358;2023-02-01T09:26:43;7.28;;;3.70;;
64966;SDS011;51710;38.732;-121.358;2023-02-01T09:29:09;8.80;;;4.10;;
64966;SDS011;51710;38.732;-121.358;2023-02-01T09:31:36;10.93;;;4.22;;
64966;SDS011;51710;38.732;-121.358;2023-02-01T09:34:03;6.80;;;3.85;;
64966;SDS011;51710;38.732;-121.358;2023-02-01T09:36:29;8.15;;;4.53;;
64966;SDS011;51710;38.732;-121.358;2023-02-01T09:38:56;9.70;;;4.32;;
64966;SDS011;51710;38.732;-121.358;2023-02-01T09:44:20;9.02;;;4.18;;
64966;SDS011;51710;38.732;-121.358;2023-02-01T09:47:02;7.97;;;4.15;;
64966;SDS011;51710;38.732;-121.358;2023-02-01T09:49:33;7.70;;;4.20;;
64966;SDS011;51710;38.732;-121.358;2023-02-01T09:52:04;7.43;;;4.05;;
64966;SDS011;51710;38.732;-121.358;2023-02-01T09:54:44;8.82;;;4.78;;
64966;SDS011;51710;38.732;-121.358;2023-02-01T09:57:26;8.13;;;4.38;;
64966;SDS011;51710;38.732;-121.358;2023-02-01T10:00:04;8.23;;;4.13;;
64966;SDS011;51710;38.732;-121.358;2023-02-01T10:02:40;7.57;;;4.28;;
64966;SDS011;51710;38.732;-121.358;2023-02-01T10:05:12;8.45;;;4.05;;
64966;SDS011;51710;38.732;-121.358;2023-02-01T10:13:45;7.80;;;3.92;;
64966;SDS011;51710;38.732;-121.358;2023-02-01T10:21:46;6.07;;;3.38;;
64966;SDS011;51710;38.732;-121.358;2023-02-01T10:24:17;7.35;;;3.85;;
64966;SDS011;51710;38.732;-121.358;2023-02-01T10:26:48;8.00;;;3.78;;
64966;SDS011;51710;38.732;-121.358;2023-02-01T10:29:36;7.07;;;3.72;;
64966;SDS011;51710;38.732;-121.358;2023-02-01T10:32:16;7.88;;;3.35;;
64966;SDS011;51710;38.732;-121.358;2023-02-01T10:34:50;6.22;;;3.53;;
64966;SDS011;51710;38.732;-121.358;2023-02-01T10:39:58;8.15;;;4.25;;
64966;SDS011;51710;38.732;-121.358;2023-02-01T10:42:56;8.65;;;3.78;;
64966;SDS011;51710;38.732;-121.358;2023-02-01T10:45:25;8.02;;;4.00;;
64966;SDS011;51710;38.732;-121.358;2023-02-01T10:47:54;7.40;;;4.13;;
64966;SDS011;51710;38.732;-121.358;2023-02-01T10:50:34;8.70;;;4.20;;
64966;SDS011;51710;38.732;-121.358;2023-02-01T10:55:47;9.95;;;3.92;;
64966;SDS011;51710;38.732;-121.358;2023-02-01T10:58:19;6.70;;;3.42;;
64966;SDS011;51710;38.732;-121.358;2023-02-01T11:00:57;8.95;;;4.30;;
64966;SDS011;51710;38.732;-121.358;2023-02-01T11:03:45;7.93;;;4.25;;
64966;SDS011;51710;38.732;-121.358;2023-02-01T11:09:10;7.38;;;3.60;;
64966;SDS011;51710;38.732;-121.358;2023-02-01T11:11:57;6.75;;;3.75;;
64966;SDS011;51710;38.732;-121.358;2023-02-01T11:16:55;6.95;;;3.55;;
64966;SDS011;51710;38.732;-121.358;2023-02-01T11:19:28;9.07;;;3.72;;
64966;SDS011;51710;38.732;-121.358;2023-02-01T11:21:55;7.97;;;4.20;;
64966;SDS011;51710;38.732;-121.358;2023-02-01T11:24:32;9.48;;;4.47;;
64966;SDS011;51710;38.732;-121.358;2023-02-01T11:27:04;7.72;;;4.57;;
64966;SDS011;51710;38.732;-121.358;2023-02-01T11:29:42;8.85;;;4.07;;
64966;SDS011;51710;38.732;-121.358;2023-02-01T11:32:12;10.30;;;4.15;;
64966;SDS011;51710;38.732;-121.358;2023-02-01T11:37:59;7.70;;;4.25;;
64966;SDS011;51710;38.732;-121.358;2023-02-01T11:42:56;7.05;;;4.10;;
64966;SDS011;51710;38.732;-121.358;2023-02-01T11:45:32;6.85;;;4.07;;
64966;SDS011;51710;38.732;-121.358;2023-02-01T11:48:09;7.78;;;4.15;;
64966;SDS011;51710;38.732;-121.358;2023-02-01T11:55:56;6.97;;;4.28;;
64966;SDS011;51710;38.732;-121.358;2023-02-01T12:01:23;6.90;;;4.07;;
64966;SDS011;51710;38.732;-121.358;2023-02-01T12:07:13;9.60;;;3.75;;
64966;SDS011;51710;38.732;-121.358;2023-02-01T12:09:57;8.85;;;3.90;;
64966;SDS011;51710;38.732;-121.358;2023-02-01T12:18:05;9.68;;;4.47;;
64966;SDS011;51710;38.732;-121.358;2023-02-01T12:29:09;8.80;;;3.80;;
64966;SDS011;51710;38.732;-121.358;2023-02-01T12:35:13;7.80;;;4.18;;
64966;SDS011;51710;38.732;-121.358;2023-02-01T12:43:22;6.95;;;3.63;;
64966;SDS011;51710;38.732;-121.358;2023-02-01T12:46:03;8.63;;;3.50;;
64966;SDS011;51710;38.732;-121.358;2023-02-01T12:48:42;8.40;;;3.72;;
64966;SDS011;51710;38.732;-121.358;2023-02-01T12:51:29;6.38;;;3.67;;
64966;SDS011;51710;38.732;-121.358;2023-02-01T12:54:06;7.00;;;3.65;;
64966;SDS011;51710;38.732;-121.358;2023-02-01T12:56:43;6.97;;;3.60;;
64966;SDS011;51710;38.732;-121.358;2023-02-01T12:59:36;7.45;;;3.45;;
64966;SDS011;51710;38.732;-121.358;2023-02-01T13:05:27;7.00;;;3.70;;
64966;SDS011;51710;38.732;-121.358;2023-02-01T13:08:11;11.02;;;3.85;;
64966;SDS011;51710;38.732;-121.358;2023-02-01T13:10:54;8.48;;;4.03;;
64966;SDS011;51710;38.732;-121.358;2023-02-01T13:13:40;9.77;;;4.05;;
64966;SDS011;51710;38.732;-121.358;2023-02-01T13:16:37;9.30;;;4.15;;
64966;SDS011;51710;38.732;-121.358;2023-02-01T13:19:22;7.28;;;3.78;;
64966;SDS011;51710;38.732;-121.358;2023-02-01T13:22:05;8.73;;;4.10;;
64966;SDS011;51710;38.732;-121.358;2023-02-01T13:24:48;7.07;;;3.75;;
64966;SDS011;51710;38.732;-121.358;2023-02-01T13:27:20;8.05;;;3.83;;
64966;SDS011;51710;38.732;-121.358;2023-02-01T13:30:10;7.65;;;3.75;;
64966;SDS011;51710;38.732;-121.358;2023-02-01T13:41:24;7.97;;;3.53;;
64966;SDS011;51710;38.732;-121.358;2023-02-01T13:44:15;6.47;;;3.97;;
64966;SDS011;51710;38.732;-121.358;2023-02-01T13:46:43;9.80;;;3.95;;
64966;SDS011;51710;38.732;-121.358;2023-02-01T13:49:22;7.82;;;3.70;;
64966;SDS011;51710;38.732;-121.358;2023-02-01T13:51:53;7.60;;;3.65;;
64966;SDS011;51710;38.732;-121.358;2023-02-01T13:54:29;8.20;;;3.72;;
64966;SDS011;51710;38.732;-121.358;2023-02-01T13:56:58;9.45;;;4.30;;
64966;SDS011;51710;38.732;-121.358;2023-02-01T14:03:01;8.00;;;3.97;;
64966;SDS011;51710;38.732;-121.358;2023-02-01T14:05:57;7.45;;;4.18;;
64966;SDS011;51710;38.732;-121.358;2023-02-01T14:13:31;9.35;;;4.28;;
64966;SDS011;51710;38.732;-121.358;2023-02-01T14:21:17;7.47;;;3.58;;
64966;SDS011;51710;38.732;-121.358;2023-02-01T14:29:12;10.07;;;4.53;;
64966;SDS011;51710;38.732;-121.358;2023-02-01T14:31:43;8.23;;;4.20;;
64966;SDS011;51710;38.732;-121.358;2023-02-01T14:47:55;12.88;;;5.65;;
64966;SDS011;51710;38.732;-121.358;2023-02-01T14:50:47;9.90;;;4.90;;
64966;SDS011;51710;38.732;-121.358;2023-02-01T14:53:22;9.10;;;5.32;;
64966;SDS011;51710;38.732;-121.358;2023-02-01T15:01:13;8.30;;;4.68;;
64966;SDS011;51710;38.732;-121.358;2023-02-01T15:03:48;9.63;;;4.90;;
64966;SDS011;51710;38.732;-121.358;2023-02-01T15:06:32;10.35;;;4.82;;
64966;SDS011;51710;38.732;-121.358;2023-02-01T15:09:09;8.85;;;5.38;;
64966;SDS011;51710;38.732;-121.358;2023-02-01T15:14:26;8.13;;;4.40;;
64966;SDS011;51710;38.732;-121.358;2023-02-01T15:16:54;8.02;;;4.38;;
64966;SDS011;51710;38.732;-121.358;2023-02-01T15:19:29;7.75;;;4.70;;
64966;SDS011;51710;38.732;-121.358;2023-02-01T15:21:56;11.00;;;5.45;;
64966;SDS011;51710;38.732;-121.358;2023-02-01T15:26:54;9.88;;;4.28;;
64966;SDS011;51710;38.732;-121.358;2023-02-01T15:29:27;10.93;;;4.28;;
64966;SDS011;51710;38.732;-121.358;2023-02-01T15:31:57;12.65;;;4.63;;
64966;SDS011;51710;38.732;-121.358;2023-02-01T15:34:43;14.60;;;4.75;;
64966;SDS011;51710;38.732;-121.358;2023-02-01T15:37:15;9.57;;;4.72;;
64966;SDS011;51710;38.732;-121.358;2023-02-01T15:42:29;7.65;;;4.82;;
64966;SDS011;51710;38.732;-121.358;2023-02-01T15:44:55;10.65;;;4.90;;
64966;SDS011;51710;38.732;-121.358;2023-02-01T15:47:28;8.38;;;4.28;;
64966;SDS011;51710;38.732;-121.358;2023-02-01T15:49:58;8.85;;;4.35;;
64966;SDS011;51710;38.732;-121.358;2023-02-01T15:52:36;11.30;;;4.28;;
64966;SDS011;51710;38.732;-121.358;2023-02-01T15:55:05;9.85;;;4.78;;
64966;SDS011;51710;38.732;-121.358;2023-02-01T15:57:35;8.70;;;5.03;;
64966;SDS011;51710;38.732;-121.358;2023-02-01T16:03:03;11.07;;;4.68;;
64966;SDS011;51710;38.732;-121.358;2023-02-01T16:05:35;12.18;;;4.57;;
64966;SDS011;51710;38.732;-121.358;2023-02-01T16:10:44;9.20;;;4.32;;
64966;SDS011;51710;38.732;-121.358;2023-02-01T16:13:13;12.82;;;5.03;;
64966;SDS011;51710;38.732;-121.358;2023-02-01T16:15:41;6.88;;;3.78;;
64966;SDS011;51710;38.732;-121.358;2023-02-01T16:18:08;6.68;;;4.25;;
64966;SDS011;51710;38.732;-121.358;2023-02-01T16:20:35;14.10;;;5.35;;
64966;SDS011;51710;38.732;-121.358;2023-02-01T16:23:04;9.18;;;4.82;;
64966;SDS011;51710;38.732;-121.358;2023-02-01T16:25:31;8.52;;;5.05;;
64966;SDS011;51710;38.732;-121.358;2023-02-01T16:27:58;7.82;;;4.43;;
64966;SDS011;51710;38.732;-121.358;2023-02-01T16:30:24;10.60;;;5.00;;
64966;SDS011;51710;38.732;-121.358;2023-02-01T16:32:55;9.75;;;4.45;;
64966;SDS011;51710;38.732;-121.358;2023-02-01T16:35:28;8.38;;;4.95;;
64966;SDS011;51710;38.732;-121.358;2023-02-01T16:38:01;10.30;;;4.78;;
64966;SDS011;51710;38.732;-121.358;2023-02-01T16:40:34;10.95;;;5.10;;
64966;SDS011;51710;38.732;-121.358;2023-02-01T16:43:00;7.68;;;4.55;;
64966;SDS011;51710;38.732;-121.358;2023-02-01T16:45:27;8.27;;;4.53;;
64966;SDS011;51710;38.732;-121.358;2023-02-01T16:47:54;11.90;;;5.45;;
64966;SDS011;51710;38.732;-121.358;2023-02-01T16:50:23;8.65;;;4.53;;
64966;SDS011;51710;38.732;-121.358;2023-02-01T16:52:53;9.88;;;4.40;;
64966;SDS011;51710;38.732;-121.358;2023-02-01T16:55:20;9.27;;;4.15;;
64966;SDS011;51710;38.732;-121.358;2023-02-01T16:57:47;10.30;;;4.88;;
64966;SDS011;51710;38.732;-121.358;2023-02-01T17:00:14;10.52;;;5.28;;
64966;SDS011;51710;38.732;-121.358;2023-02-01T17:02:41;9.90;;;5.25;;
64966;SDS011;51710;38.732;-121.358;2023-02-01T17:05:07;9.50;;;4.88;;
64966;SDS011;51710;38.732;-121.358;2023-02-01T17:07:36;7.38;;;4.50;;
64966;SDS011;51710;38.732;-121.358;2023-02-01T17:10:04;8.50;;;4.28;;
64966;SDS011;51710;38.732;-121.358;2023-02-01T17:12:32;7.95;;;4.53;;
64966;SDS011;51710;38.732;-121.358;2023-02-01T17:14:59;9.85;;;4.75;;
64966;SDS011;51710;38.732;-121.358;2023-02-01T17:17:36;14.40;;;4.63;;
64966;SDS011;51710;38.732;-121.358;2023-02-01T17:20:04;9.88;;;4.63;;
64966;SDS011;51710;38.732;-121.358;2023-02-01T17:22:31;10.77;;;4.45;;
64966;SDS011;51710;38.732;-121.358;2023-02-01T17:24:58;8.60;;;4.63;;